Cosmos, MN (56228)

4:28 PM CST on November 23, 2014 (GMT -0600)
Litchfield Municipal | Change Station
CLOSE
Current Station
Airport
Location: Litchfield,
Elevation: 1138 ft
Nearby Weather Stations

Elev 1138 ft 45.09 °N, 94.51 °W | Updated 16 minutes ago

Overcast
Overcast
37 °F
Feels Like 33 °F
N
6
Wind Variable Wind from West

Today
High -- | Low -- °F
--% Chance of Precip.
Yesterday
High -- | Low -- °F
Precip. -- in
7:26 AM 4:43 PM
New Moon, 2% visible
Pressure 29.43 in
Visibility 10.0 miles
Clouds Mostly Cloudy 2100 ft
Overcast 2800 ft
Windchill 33 °F
Dew Point 37 °F
Humidity 100%
Rainfall 0.31 in
Snow Depth Not available.
UV 0 out of 12
Pollen .10 out of 12
Air Quality Not available.
Flu Activity Not available.
METAR KLJF 232212Z AUTO 28005KT 10SM BKN021 OVC028 03/03 A2943 RMK AO2

More Conditions Fewer Conditions

Pressure 29.43 in
Visibility 10.0 miles
Clouds Mostly Cloudy 2100 ft
Overcast 2800 ft
Windchill 33 °F
Dew Point 37 °F
Humidity 100%
Rainfall 0.31 in
Snow Depth Not available.
UV 0 out of 12
Pollen .10 out of 12
Air Quality Not available.
Flu Activity Not available.
METAR KLJF 232212Z AUTO 28005KT 10SM BKN021 OVC028 03/03 A2943 RMK AO2

More Conditions Fewer Conditions

Nowcast | as of 2:26 PM CST on November 23, 2014

A band of light rain...drizzle and fog is falling across parts of southwest...central and northeast Minnesota into western Wisconsin. The leading edge of rain is located from Duluth to Lake Mille lacs... and St cloud...over the western Twin City Metro area...west and south out to Litchfield...Hutchinson...Redwood Falls...and Worthington. The trailing edge is moving towards eastern Minnesota between now and 600 PM. Light accumulations of a few hundreths up to a tenth inch of rain are expected.

×

10-Day Weather Forecast

Almanac

Astronomy

Nov. 23, 2014 Rise Set
Actual Time
Civil Twilight
Nautical Twilight
Astronomical Twilight
Moon
Length of Visible Light
Length of Day
Tomorrow will be .
, % of the Moon is Illuminated

Today's Extremes

State Highs State Lows

Community

WunderPhotos

Upload Photos

1,773,186 photos uploaded!

WunderBlogs® & News

Nearby

Air Quality

  Air Quality AQ Index Pollutant
Not available.

Snow Depth

Station Depth Elevation

Earthquake Activity

City Distance Mag. Time & Date
Minimum magnitude displayed is 2.5.

Coastal Water Temperatures

Place Temperature

Nearby Weather Stations